Time;durP1;ratioP1;P1;durP2;ratioP2;P2;SDS_P1;SDS_P2;PMS_P1;PMS_P2;Temp;Humidity;BMP_temperature;BMP_pressure;BME280_temperature;BME280_humidity;BME280_pressure;Samples;Min_cycle;Max_cycle;Signal;HPM_P1;HPM_P2
2022/03/19 00:00:11;;;;;;;62.83;32.47;;;7.20;99.90;;;;;;5056393;28;20110;-63
2022/03/19 00:02:37;;;;;;;57.95;31.00;;;7.10;99.90;;;;;;5056300;28;20053;-64
2022/03/19 00:05:02;;;;;;;65.97;32.43;;;7.10;99.90;;;;;;5056868;28;20025;-64
2022/03/19 00:07:28;;;;;;;59.83;30.97;;;7.10;99.90;;;;;;5060507;28;20099;-64
2022/03/19 00:09:55;;;;;;;65.80;32.77;;;7.10;99.90;;;;;;5057347;28;20408;-60
2022/03/19 00:12:21;;;;;;;66.45;32.75;;;7.10;99.90;;;;;;5055961;28;20021;-61
2022/03/19 00:14:46;;;;;;;64.97;32.80;;;7.10;99.90;;;;;;5055816;28;20028;-63
2022/03/19 00:17:12;;;;;;;59.00;30.97;;;7.10;99.90;;;;;;5055733;28;20021;-62
2022/03/19 00:19:38;;;;;;;65.73;34.20;;;7.00;99.90;;;;;;5056012;28;20017;-63
2022/03/19 00:22:05;;;;;;;;;;;7.00;99.90;;;;;;5056485;28;20447;-63
2022/03/19 00:24:31;;;;;;;66.15;31.63;;;7.00;99.90;;;;;;5055910;28;20376;-62
2022/03/19 00:26:56;;;;;;;69.00;32.55;;;7.00;99.90;;;;;;5055981;28;20021;-63
2022/03/19 00:29:23;;;;;;;64.93;32.97;;;7.00;99.90;;;;;;5054668;28;20032;-61
2022/03/19 00:31:48;;;;;;;63.83;33.30;;;7.00;99.90;;;;;;5055619;28;20128;-62
2022/03/19 00:34:14;;;;;;;62.43;31.90;;;6.90;99.90;;;;;;5055189;28;20116;-62
2022/03/19 00:36:40;;;;;;;62.17;31.27;;;6.90;99.90;;;;;;5055249;28;20477;-59
2022/03/19 00:39:06;;;;;;;63.80;32.35;;;6.90;99.90;;;;;;5056436;28;20029;-64
2022/03/19 00:41:31;;;;;;;65.30;33.03;;;6.90;99.90;;;;;;5057954;28;20044;-63
2022/03/19 00:43:57;;;;;;;68.13;31.60;;;6.90;99.90;;;;;;5056085;28;20463;-62
2022/03/19 00:46:22;;;;;;;62.93;31.00;;;6.90;99.90;;;;;;5055205;28;20071;-62
2022/03/19 00:48:48;;;;;;;63.00;31.87;;;6.90;99.90;;;;;;5055429;28;20026;-62
2022/03/19 00:51:14;;;;;;;66.72;30.58;;;6.80;99.90;;;;;;5055176;28;20401;-62
2022/03/19 00:53:40;;;;;;;58.13;29.48;;;6.80;99.90;;;;;;5055063;28;20061;-62
2022/03/19 00:56:05;;;;;;;62.83;30.53;;;6.80;99.90;;;;;;5055216;28;20044;-60
2022/03/19 00:58:31;;;;;;;60.30;31.00;;;6.80;99.90;;;;;;5055244;28;20123;-63
2022/03/19 01:00:56;;;;;;;54.63;29.87;;;6.80;99.90;;;;;;5055085;28;20029;-63
2022/03/19 01:03:22;;;;;;;57.93;28.43;;;6.80;99.90;;;;;;5054902;28;20028;-61
2022/03/19 01:05:48;;;;;;;58.93;28.93;;;6.80;99.90;;;;;;5054789;28;20755;-63
2022/03/19 01:08:14;;;;;;;62.43;30.23;;;6.80;99.90;;;;;;5053785;28;20104;-63
2022/03/19 01:10:40;;;;;;;61.05;30.63;;;6.80;99.90;;;;;;5054844;28;20025;-63
2022/03/19 01:13:06;;;;;;;61.35;28.77;;;6.80;99.90;;;;;;5054631;28;20025;-63
2022/03/19 01:15:33;;;;;;;61.58;31.60;;;6.80;99.90;;;;;;5054836;28;20021;-63
2022/03/19 01:18:00;;;;;;;59.63;29.30;;;6.70;99.90;;;;;;5053399;28;20079;-63
2022/03/19 01:20:26;;;;;;;59.65;29.27;;;6.70;99.90;;;;;;5054763;28;20040;-62
2022/03/19 01:22:52;;;;;;;62.63;30.42;;;6.70;99.90;;;;;;5053351;28;20063;-62
2022/03/19 01:25:19;;;;;;;61.63;28.67;;;6.70;99.90;;;;;;5055056;28;20422;-62
2022/03/19 01:27:46;;;;;;;56.90;28.58;;;6.70;99.90;;;;;;5054447;28;20685;-62
2022/03/19 01:30:14;;;;;;;55.55;29.60;;;6.70;99.90;;;;;;5053937;28;20017;-62
2022/03/19 01:32:41;;;;;;;58.20;30.45;;;6.60;99.90;;;;;;5054866;28;20029;-62
2022/03/19 01:35:08;;;;;;;62.58;29.70;;;6.60;99.90;;;;;;5054674;28;20029;-61
2022/03/19 01:37:33;;;;;;;58.00;29.83;;;6.60;99.90;;;;;;5054456;28;20395;-62
2022/03/19 01:39:59;;;;;;;57.97;29.03;;;6.60;99.90;;;;;;5054647;28;20058;-62
2022/03/19 01:42:27;;;;;;;53.43;29.03;;;6.60;99.90;;;;;;5054800;28;20021;-62
2022/03/19 01:44:55;;;;;;;55.78;27.92;;;6.60;99.90;;;;;;5052969;28;20551;-63
2022/03/19 01:47:21;;;;;;;59.42;28.45;;;6.60;99.90;;;;;;5053223;28;20025;-63
2022/03/19 01:49:47;;;;;;;58.58;29.63;;;6.60;99.90;;;;;;5054248;28;20450;-60
2022/03/19 01:52:13;;;;;;;58.17;29.05;;;6.60;99.90;;;;;;5055182;28;20064;-62
2022/03/19 01:54:44;;;;;;;62.85;28.98;;;6.50;99.90;;;;;;5055895;28;20206;-62
2022/03/19 01:57:14;;;;;;;55.65;28.27;;;6.50;99.90;;;;;;5056495;28;20036;-63
2022/03/19 01:59:42;;;;;;;53.17;27.52;;;6.50;99.90;;;;;;5057303;28;20107;-63
2022/03/19 02:02:10;;;;;;;55.10;27.15;;;6.50;99.90;;;;;;5056962;28;20030;-62
2022/03/19 02:04:37;;;;;;;54.40;27.17;;;6.50;99.90;;;;;;5054881;28;20024;-63
2022/03/19 02:07:05;;;;;;;58.45;28.65;;;6.50;99.90;;;;;;5058637;28;20025;-63
2022/03/19 02:09:31;;;;;;;58.28;27.42;;;6.50;99.90;;;;;;5057207;28;20029;-63
2022/03/19 02:11:56;;;;;;;52.90;27.70;;;6.50;99.90;;;;;;5054866;28;20025;-63
2022/03/19 02:14:22;;;;;;;54.03;27.03;;;6.50;99.90;;;;;;5056669;28;20029;-62
2022/03/19 02:16:49;;;;;;;56.25;27.63;;;6.50;99.90;;;;;;5060984;28;20036;-63
2022/03/19 02:19:15;;;;;;;54.75;26.92;;;6.50;99.90;;;;;;5060837;28;20085;-63
2022/03/19 02:21:49;;;;;;;57.13;27.50;;;6.50;99.90;;;;;;5060787;28;20500;-61
2022/03/19 02:27:00;;;;;;;52.35;26.67;;;6.40;99.90;;;;;;5056122;28;20082;-63
2022/03/19 02:29:26;;;;;;;53.90;28.23;;;6.40;99.90;;;;;;5054267;28;20031;-63
2022/03/19 02:31:55;;;;;;;55.63;28.52;;;6.40;99.90;;;;;;5053547;28;20490;-64
2022/03/19 02:34:21;;;;;;;55.63;28.25;;;6.40;99.90;;;;;;5053743;28;20095;-62
2022/03/19 02:36:47;;;;;;;57.80;28.20;;;6.40;99.90;;;;;;5053379;28;20029;-62
2022/03/19 02:39:18;;;;;;;53.80;28.20;;;6.30;99.90;;;;;;5051892;28;20132;-62
2022/03/19 02:41:47;;;;;;;57.78;26.58;;;6.30;99.90;;;;;;5052642;28;20363;-62
2022/03/19 02:44:15;;;;;;;53.42;27.80;;;6.30;99.90;;;;;;5053417;28;20029;-63
2022/03/19 02:46:47;;;;;;;60.90;26.95;;;6.30;99.90;;;;;;5052911;28;20029;-63
2022/03/19 02:49:17;;;;;;;54.72;26.40;;;6.30;99.90;;;;;;5053181;28;20052;-63
2022/03/19 02:51:44;;;;;;;55.33;28.25;;;6.30;99.90;;;;;;5053035;28;20032;-62
2022/03/19 02:54:13;;;;;;;53.65;26.77;;;6.30;99.90;;;;;;5053264;28;20167;-64
2022/03/19 02:56:40;;;;;;;55.65;27.30;;;6.30;99.90;;;;;;5053036;28;20036;-63
2022/03/19 02:59:21;;;;;;;50.80;25.75;;;6.30;99.90;;;;;;5053141;28;20025;-62
2022/03/19 03:01:48;;;;;;;56.22;26.95;;;6.30;99.90;;;;;;5053205;28;20339;-63
2022/03/19 03:04:14;;;;;;;51.08;26.65;;;6.30;99.90;;;;;;5053162;28;20025;-63
2022/03/19 03:06:43;;;;;;;58.20;28.38;;;6.30;99.90;;;;;;5053004;28;20045;-60
2022/03/19 03:09:10;;;;;;;59.45;27.60;;;6.30;99.90;;;;;;5052950;28;20035;-63
2022/03/19 03:11:36;;;;;;;54.88;26.65;;;6.30;99.90;;;;;;5052931;28;20091;-63
2022/03/19 03:14:03;;;;;;;49.83;25.30;;;6.30;99.90;;;;;;5053792;28;20037;-63
2022/03/19 03:16:30;;;;;;;55.85;28.65;;;6.30;99.90;;;;;;5053063;28;20029;-62
2022/03/19 03:18:56;;;;;;;;;;;6.30;99.90;;;;;;5053801;28;20108;-62
2022/03/19 03:21:22;;;;;;;52.72;25.77;;;6.30;99.90;;;;;;5054824;28;20415;-63
2022/03/19 03:23:48;;;;;;;49.40;26.30;;;6.20;99.90;;;;;;5054141;28;20025;-63
2022/03/19 03:26:14;;;;;;;56.47;26.77;;;6.20;99.90;;;;;;5054087;28;20028;-62
2022/03/19 03:28:40;;;;;;;53.50;26.93;;;6.20;99.90;;;;;;5053847;28;20389;-63
2022/03/19 03:31:06;;;;;;;55.53;27.92;;;6.20;99.90;;;;;;5053442;28;20021;-62
2022/03/19 03:33:32;;;;;;;53.10;26.77;;;6.20;99.90;;;;;;5053207;28;20036;-62
2022/03/19 03:35:57;;;;;;;51.70;26.15;;;6.20;99.90;;;;;;5053000;28;20075;-62
2022/03/19 03:38:23;;;;;;;49.30;25.50;;;6.20;99.90;;;;;;5051351;28;20079;-61
2022/03/19 03:40:49;;;;;;;59.43;28.23;;;6.10;99.90;;;;;;5052701;28;20025;-61
2022/03/19 03:43:14;;;;;;;53.75;26.63;;;6.10;99.90;;;;;;5052628;28;20483;-61
2022/03/19 03:45:40;;;;;;;55.07;26.50;;;6.10;99.90;;;;;;5053343;28;20055;-62
2022/03/19 03:48:06;;;;;;;63.07;27.33;;;6.10;99.90;;;;;;5051479;28;20405;-63
2022/03/19 03:50:31;;;;;;;52.70;25.90;;;6.10;99.90;;;;;;5052629;28;20021;-62
2022/03/19 03:52:57;;;;;;;50.03;26.33;;;6.10;99.90;;;;;;5052651;28;20024;-62
2022/03/19 03:55:23;;;;;;;56.20;26.42;;;6.10;99.90;;;;;;5056591;28;20056;-63
2022/03/19 03:57:49;;;;;;;51.25;25.20;;;6.10;99.90;;;;;;5056499;28;20125;-61
2022/03/19 04:00:15;;;;;;;56.00;27.67;;;6.10;99.90;;;;;;5056467;28;20049;-62
2022/03/19 04:02:41;;;;;;;49.00;25.30;;;6.10;99.90;;;;;;5056236;28;20107;-62
2022/03/19 04:05:08;;;;;;;56.00;26.35;;;6.10;99.90;;;;;;5056258;28;20057;-62
2022/03/19 04:07:34;;;;;;;53.28;27.00;;;6.00;99.90;;;;;;5056507;28;20104;-62
2022/03/19 04:09:59;;;;;;;53.83;26.08;;;6.10;99.90;;;;;;5056715;28;20028;-63
2022/03/19 04:12:25;;;;;;;49.83;25.17;;;6.00;99.90;;;;;;5056951;28;20410;-62
2022/03/19 04:14:52;;;;;;;56.33;26.17;;;6.00;99.90;;;;;;5057079;28;20017;-59
2022/03/19 04:17:18;;;;;;;55.10;27.20;;;6.00;99.90;;;;;;5056960;28;20334;-62
2022/03/19 04:19:45;;;;;;;51.17;26.17;;;6.00;99.90;;;;;;5059455;28;20024;-62
2022/03/19 04:22:11;;;;;;;;;;;6.00;99.90;;;;;;5058341;28;20086;-62
2022/03/19 04:24:36;;;;;;;51.70;26.45;;;6.00;99.90;;;;;;5056191;28;19905;-62
2022/03/19 04:27:03;;;;;;;59.90;26.70;;;6.00;99.90;;;;;;5056400;28;20033;-63
2022/03/19 04:29:28;;;;;;;49.80;27.25;;;6.00;99.90;;;;;;5055931;28;20086;-61
2022/03/19 04:31:54;;;;;;;54.63;25.87;;;6.00;99.90;;;;;;5056599;28;20390;-62
2022/03/19 04:34:20;;;;;;;57.47;25.77;;;5.90;99.90;;;;;;5056062;28;20378;-60
2022/03/19 04:36:45;;;;;;;49.53;25.93;;;5.90;99.90;;;;;;5056065;28;20470;-60
2022/03/19 04:39:11;;;;;;;51.73;26.47;;;5.90;99.90;;;;;;5055323;28;20036;-60
2022/03/19 04:41:38;;;;;;;57.73;27.10;;;5.90;99.90;;;;;;5055195;28;20024;-62
2022/03/19 04:44:07;;;;;;;54.05;25.40;;;5.90;99.90;;;;;;5055251;28;20036;-63
2022/03/19 04:46:33;;;;;;;56.70;25.48;;;5.90;99.90;;;;;;5055224;28;20024;-60
2022/03/19 04:48:59;;;;;;;51.97;25.38;;;5.90;99.90;;;;;;5055331;28;20025;-62
2022/03/19 04:51:39;;;;;;;50.73;26.03;;;5.90;99.90;;;;;;5055246;28;20082;-61
2022/03/19 04:54:07;;;;;;;52.00;25.08;;;5.80;99.90;;;;;;5055104;28;20033;-59
2022/03/19 04:56:33;;;;;;;56.30;26.92;;;5.80;99.90;;;;;;5055297;28;20032;-63
2022/03/19 04:59:00;;;;;;;55.07;27.07;;;5.80;99.90;;;;;;5056024;28;20415;-62
2022/03/19 05:01:27;;;;;;;54.90;26.30;;;5.80;99.90;;;;;;5055045;28;20029;-59
2022/03/19 05:03:53;;;;;;;52.22;26.00;;;5.80;99.90;;;;;;5054771;28;20029;-61
2022/03/19 05:06:19;;;;;;;50.95;24.65;;;5.80;99.90;;;;;;5052690;28;20025;-61
2022/03/19 05:08:45;;;;;;;49.30;23.88;;;5.80;99.90;;;;;;5054700;28;20036;-61
2022/03/19 05:11:13;;;;;;;57.38;26.10;;;5.70;99.90;;;;;;5055029;28;20033;-63
2022/03/19 05:13:48;;;;;;;55.17;25.60;;;5.70;99.90;;;;;;5054579;28;20115;-61
2022/03/19 05:16:18;;;;;;;50.15;25.35;;;5.70;99.90;;;;;;5054853;28;20104;-60
2022/03/19 05:18:44;;;;;;;51.97;25.42;;;5.70;99.90;;;;;;5054626;28;20024;-63
2022/03/19 05:21:12;;;;;;;56.88;26.02;;;5.60;99.90;;;;;;5055678;28;20040;-63
2022/03/19 05:23:37;;;;;;;53.10;25.73;;;5.60;99.90;;;;;;5055181;28;20390;-61
2022/03/19 05:26:04;;;;;;;49.97;24.85;;;5.60;99.90;;;;;;5054565;28;20017;-63
2022/03/19 05:28:30;;;;;;;49.70;25.80;;;5.60;99.90;;;;;;5053003;28;20035;-61
2022/03/19 05:30:57;;;;;;;48.90;25.10;;;5.60;99.90;;;;;;5054406;28;20100;-62
2022/03/19 05:34:29;;;;;;;55.53;26.45;;;5.60;99.90;;;;;;5054110;28;20021;-62
2022/03/19 05:36:09;;;;;;;54.58;26.25;;;5.60;99.90;;;;;;5054164;28;20112;-62
2022/03/19 05:38:35;;;;;;;59.22;26.20;;;5.60;99.90;;;;;;5054277;28;20056;-63
2022/03/19 05:41:01;;;;;;;50.47;26.33;;;5.60;99.90;;;;;;5053988;28;20055;-64
2022/03/19 05:43:27;;;;;;;55.67;27.50;;;5.60;99.90;;;;;;5054534;28;20021;-63
2022/03/19 05:45:52;;;;;;;58.03;25.37;;;5.60;99.90;;;;;;5054261;28;20056;-62
2022/03/19 05:48:18;;;;;;;55.37;26.33;;;5.50;99.90;;;;;;5054277;28;20028;-64
2022/03/19 05:50:43;;;;;;;53.47;26.07;;;5.50;99.90;;;;;;5054442;28;20025;-62
2022/03/19 05:53:09;;;;;;;50.00;25.83;;;5.50;99.90;;;;;;5054403;28;20037;-62
2022/03/19 05:55:35;;;;;;;67.30;26.03;;;5.50;99.90;;;;;;5054360;28;20032;-64
2022/03/19 05:58:00;;;;;;;51.80;25.90;;;5.50;99.90;;;;;;5053076;28;20504;-61
2022/03/19 06:00:26;;;;;;;55.70;25.80;;;5.50;99.90;;;;;;5054460;28;20037;-62
2022/03/19 06:02:51;;;;;;;51.33;26.20;;;5.50;99.90;;;;;;5053570;28;20036;-62
2022/03/19 06:05:17;;;;;;;50.53;26.17;;;5.50;99.90;;;;;;5053867;28;20025;-62
2022/03/19 06:07:42;;;;;;;53.50;25.60;;;5.50;99.90;;;;;;5053749;28;20033;-61
2022/03/19 06:10:09;;;;;;;51.87;25.10;;;5.50;99.90;;;;;;5053906;28;20091;-62
2022/03/19 06:12:34;;;;;;;52.70;26.60;;;5.50;99.90;;;;;;5053670;28;20037;-62
2022/03/19 06:15:00;;;;;;;54.73;25.00;;;5.60;99.90;;;;;;5053713;28;20363;-63
2022/03/19 06:17:26;;;;;;;52.37;25.53;;;5.60;99.90;;;;;;5053372;28;20028;-61
2022/03/19 06:19:52;;;;;;;54.42;26.27;;;5.60;99.90;;;;;;5053747;28;20025;-63
2022/03/19 06:22:17;;;;;;;49.47;24.27;;;5.60;99.90;;;;;;5051982;28;20094;-60
2022/03/19 06:24:43;;;;;;;52.00;25.07;;;5.70;99.90;;;;;;5053227;28;20428;-61
2022/03/19 06:27:08;;;;;;;46.47;23.63;;;5.70;99.90;;;;;;5053326;28;20025;-62
2022/03/19 06:29:34;;;;;;;51.20;25.50;;;5.70;99.90;;;;;;5052474;28;20032;-64
2022/03/19 06:31:59;;;;;;;49.47;24.13;;;5.70;99.90;;;;;;5053268;28;20035;-62
2022/03/19 06:34:25;;;;;;;52.97;26.13;;;5.80;99.90;;;;;;5053565;28;20021;-63
2022/03/19 06:39:35;;;;;;;53.83;24.48;;;5.80;99.90;;;;;;5053485;28;20443;-63
2022/03/19 06:42:00;;;;;;;54.70;25.30;;;5.90;99.90;;;;;;5053355;28;20112;-64
2022/03/19 06:44:26;;;;;;;50.60;24.37;;;5.90;99.90;;;;;;5053317;28;20100;-63
2022/03/19 06:46:51;;;;;;;48.38;24.50;;;5.90;99.90;;;;;;5052998;28;20059;-64
2022/03/19 06:49:17;;;;;;;47.03;24.30;;;6.00;99.90;;;;;;5053258;28;20067;-66
2022/03/19 06:51:43;;;;;;;55.50;25.65;;;6.00;99.90;;;;;;5053233;28;20033;-65
2022/03/19 06:54:09;;;;;;;48.63;23.97;;;6.10;99.90;;;;;;5053031;28;20025;-64
2022/03/19 06:56:34;;;;;;;50.70;24.07;;;6.10;99.90;;;;;;5053140;28;20474;-66
2022/03/19 06:59:00;;;;;;;48.87;24.07;;;6.20;99.90;;;;;;5053495;28;20028;-64
2022/03/19 07:01:25;;;;;;;49.77;24.77;;;6.20;99.90;;;;;;5053488;28;20025;-63
2022/03/19 07:03:51;;;;;;;49.50;24.20;;;6.30;99.90;;;;;;5053603;28;20536;-64
2022/03/19 07:06:18;;;;;;;45.30;23.47;;;6.30;99.90;;;;;;5053447;28;20017;-64
2022/03/19 07:08:44;;;;;;;46.13;24.70;;;6.30;99.90;;;;;;5052948;28;20021;-64
2022/03/19 07:11:10;;;;;;;44.60;23.38;;;6.40;99.90;;;;;;5053075;28;20025;-63
2022/03/19 07:13:36;;;;;;;53.33;23.55;;;6.40;99.90;;;;;;5052584;28;20102;-63
2022/03/19 07:16:02;;;;;;;48.85;23.17;;;6.50;99.90;;;;;;5052923;28;20068;-63
2022/03/19 07:18:28;;;;;;;46.95;23.35;;;6.50;99.90;;;;;;5052866;28;20029;-67
2022/03/19 07:20:53;;;;;;;48.70;24.53;;;6.50;99.90;;;;;;5052830;28;20032;-67
2022/03/19 07:23:19;;;;;;;44.83;23.15;;;6.60;99.90;;;;;;5052680;28;20056;-64
2022/03/19 07:25:45;;;;;;;46.15;23.95;;;6.70;99.90;;;;;;5053073;28;20386;-65
2022/03/19 07:28:13;;;;;;;45.75;22.40;;;6.70;99.90;;;;;;5053535;28;20028;-65
2022/03/19 07:30:40;;;;;;;41.08;22.00;;;6.80;99.90;;;;;;5056666;28;20064;-64
2022/03/19 07:33:06;;;;;;;45.67;23.55;;;6.80;99.90;;;;;;5056861;28;20382;-65
2022/03/19 07:35:32;;;;;;;49.85;23.90;;;6.90;99.90;;;;;;5057281;28;20103;-64
2022/03/19 07:37:58;;;;;;;45.35;22.52;;;7.00;99.90;;;;;;5057172;28;20061;-63
2022/03/19 07:43:10;;;;;;;39.00;20.25;;;7.00;99.90;;;;;;5056900;28;20035;-65
2022/03/19 07:45:38;;;;;;;44.20;21.95;;;7.20;99.90;;;;;;5056641;28;20029;-65
2022/03/19 07:48:04;;;;;;;41.20;20.83;;;7.20;99.90;;;;;;5057487;28;20033;-65
2022/03/19 07:50:31;;;;;;;43.80;21.35;;;7.20;99.90;;;;;;5056150;28;20029;-68
2022/03/19 07:52:57;;;;;;;40.85;21.38;;;7.30;99.90;;;;;;5056658;28;20037;-66
2022/03/19 07:55:24;;;;;;;39.00;20.25;;;7.40;99.90;;;;;;5061005;28;20052;-65
2022/03/19 07:57:50;;;;;;;38.92;20.42;;;7.50;99.90;;;;;;5058598;28;20044;-66
2022/03/19 08:00:17;;;;;;;40.05;20.70;;;7.50;99.90;;;;;;5057941;28;20029;-64
2022/03/19 08:02:43;;;;;;;37.80;18.85;;;7.50;99.90;;;;;;5059378;28;20028;-65
2022/03/19 08:05:10;;;;;;;39.97;20.42;;;7.50;99.90;;;;;;5059523;28;20025;-64
2022/03/19 08:07:37;;;;;;;48.35;19.92;;;7.60;99.90;;;;;;5056687;28;20048;-66
2022/03/19 08:10:04;;;;;;;40.72;19.42;;;7.60;99.90;;;;;;5057298;28;20060;-64
2022/03/19 08:12:30;;;;;;;38.65;19.95;;;7.80;99.90;;;;;;5056610;28;20025;-65
2022/03/19 08:14:58;;;;;;;34.05;18.98;;;7.80;99.90;;;;;;5056110;28;20142;-65
2022/03/19 08:17:25;;;;;;;40.13;20.63;;;8.00;99.90;;;;;;5056525;28;20032;-66
2022/03/19 08:19:51;;;;;;;;;;;8.00;99.90;;;;;;5057349;28;20027;-65
2022/03/19 08:22:16;;;;;;;34.95;18.05;;;8.10;99.90;;;;;;5056312;28;19959;-62
2022/03/19 08:24:42;;;;;;;39.90;18.93;;;8.10;99.90;;;;;;5056298;28;20017;-62
2022/03/19 08:27:10;;;;;;;38.97;20.83;;;8.20;99.90;;;;;;5056362;28;20081;-63
2022/03/19 08:29:35;;;;;;;35.20;18.55;;;8.30;99.90;;;;;;5056113;28;20579;-62
2022/03/19 08:32:01;;;;;;;35.23;18.43;;;8.40;99.90;;;;;;5056639;28;20025;-63
2022/03/19 08:34:27;;;;;;;36.35;19.52;;;8.40;99.90;;;;;;5056292;28;20361;-64
2022/03/19 08:36:53;;;;;;;38.73;19.40;;;8.60;99.90;;;;;;5055890;28;20029;-64
2022/03/19 08:42:03;;;;;;;39.22;20.83;;;8.70;99.90;;;;;;5055071;28;20131;-70
2022/03/19 08:44:28;;;;;;;34.60;18.70;;;8.80;99.90;;;;;;5056955;28;20490;-71
2022/03/19 08:46:54;;;;;;;35.73;19.20;;;8.80;99.90;;;;;;5058106;28;20271;-68
2022/03/19 08:49:22;;;;;;;36.83;19.30;;;8.90;99.90;;;;;;5058318;28;20029;-69
2022/03/19 08:51:48;;;;;;;37.10;20.67;;;9.00;99.90;;;;;;5057823;28;20029;-68
2022/03/19 08:54:17;;;;;;;34.00;19.07;;;9.00;99.90;;;;;;5057404;28;20025;-67
2022/03/19 08:56:44;;;;;;;34.75;19.48;;;9.00;99.90;;;;;;5057201;28;20021;-66
2022/03/19 08:59:10;;;;;;;39.75;21.20;;;9.00;99.90;;;;;;5057488;28;20025;-67
2022/03/19 09:01:37;;;;;;;37.87;21.10;;;9.10;99.90;;;;;;5056422;28;20066;-69
2022/03/19 09:04:02;;;;;;;40.40;20.38;;;9.20;99.90;;;;;;5055804;28;20252;-67
2022/03/19 09:06:28;;;;;;;35.03;19.80;;;9.20;99.90;;;;;;5054133;28;20355;-67
2022/03/19 09:08:54;;;;;;;33.40;19.63;;;9.30;99.90;;;;;;5054036;28;20024;-67
2022/03/19 09:11:20;;;;;;;35.60;20.17;;;9.50;99.90;;;;;;5056050;28;20032;-68
2022/03/19 09:13:50;;;;;;;33.53;19.92;;;10.30;99.90;;;;;;5055301;28;20044;-68
2022/03/19 09:16:19;;;;;;;37.28;21.75;;;11.40;98.20;;;;;;5053408;28;20365;-67
2022/03/19 09:18:45;;;;;;;36.88;21.17;;;12.20;95.50;;;;;;5055333;28;20051;-67
2022/03/19 09:21:11;;;;;;;37.03;20.52;;;12.30;94.10;;;;;;5055013;28;20025;-67
2022/03/19 09:23:37;;;;;;;36.92;21.15;;;12.20;94.20;;;;;;5055003;28;20085;-67
2022/03/19 09:26:03;;;;;;;35.10;22.15;;;13.00;93.00;;;;;;5053457;28;20086;-65
2022/03/19 09:28:29;;;;;;;36.08;22.55;;;14.00;90.70;;;;;;5054788;28;20025;-66
2022/03/19 09:30:54;;;;;;;34.03;21.13;;;13.60;90.60;;;;;;5054723;28;20067;-66
2022/03/19 09:33:20;;;;;;;35.73;23.00;;;13.60;90.00;;;;;;5053367;28;20478;-66
2022/03/19 09:35:46;;;;;;;33.50;21.88;;;13.30;90.80;;;;;;5054414;28;20305;-66
2022/03/19 09:38:13;;;;;;;37.22;21.90;;;12.80;91.50;;;;;;5054693;28;20044;-66
2022/03/19 09:40:40;;;;;;;37.75;22.83;;;13.00;91.10;;;;;;5054417;28;20070;-67
2022/03/19 09:43:06;;;;;;;36.08;22.60;;;13.30;90.60;;;;;;5054174;28;20096;-66
2022/03/19 09:45:33;;;;;;;34.97;22.38;;;13.40;89.40;;;;;;5053228;28;20044;-66
2022/03/19 09:48:00;;;;;;;37.33;23.77;;;13.30;88.80;;;;;;5052862;28;20025;-66
2022/03/19 09:50:26;;;;;;;39.65;23.90;;;13.40;88.40;;;;;;5054632;28;20021;-67
2022/03/19 09:52:54;;;;;;;33.13;22.75;;;13.20;86.70;;;;;;5053720;28;20025;-67
2022/03/19 09:55:26;;;;;;;37.13;21.92;;;14.30;85.60;;;;;;5054647;28;20545;-67
2022/03/19 09:57:53;;;;;;;36.90;23.70;;;14.50;82.70;;;;;;5054816;28;20395;-67
2022/03/19 10:00:22;;;;;;;37.05;23.63;;;14.40;82.10;;;;;;5054041;28;20100;-67
2022/03/19 10:02:55;;;;;;;37.65;24.30;;;14.50;81.60;;;;;;5054073;28;20478;-66
2022/03/19 10:10:50;;;;;;;37.08;25.35;;;14.90;79.90;;;;;;5054676;28;20035;-66
2022/03/19 10:13:16;;;;;;;37.90;25.10;;;15.50;78.30;;;;;;5054574;28;20024;-66
2022/03/19 10:15:42;;;;;;;35.58;24.90;;;14.80;78.30;;;;;;5054310;28;20107;-66
2022/03/19 10:18:09;;;;;;;38.72;25.60;;;14.80;78.80;;;;;;5054263;28;20039;-67
2022/03/19 10:20:35;;;;;;;40.72;26.75;;;14.70;78.40;;;;;;5054016;28;20029;-65
2022/03/19 10:23:00;;;;;;;43.05;25.70;;;14.10;79.60;;;;;;5052684;28;20401;-66
2022/03/19 10:25:26;;;;;;;41.03;27.17;;;14.70;78.90;;;;;;5053970;28;20036;-66
2022/03/19 10:27:59;;;;;;;39.83;26.10;;;14.90;78.10;;;;;;5052172;28;20488;-67
2022/03/19 10:30:27;;;;;;;39.72;26.50;;;15.10;78.30;;;;;;5054206;28;20086;-66
2022/03/19 10:32:55;;;;;;;40.88;28.27;;;14.90;77.20;;;;;;5052374;28;20024;-66
2022/03/19 10:35:31;;;;;;;41.13;26.27;;;14.90;78.20;;;;;;5053561;28;20100;-67
2022/03/19 10:37:58;;;;;;;39.80;26.93;;;14.80;77.60;;;;;;5053576;28;20166;-66
2022/03/19 10:40:48;;;;;;;40.45;28.25;;;15.00;76.90;;;;;;5054144;28;20033;-66
2022/03/19 10:43:17;;;;;;;45.47;29.10;;;14.60;77.80;;;;;;5054000;28;20104;-66
2022/03/19 10:45:45;;;;;;;48.50;28.52;;;15.20;77.10;;;;;;5053598;28;20080;-65
2022/03/19 10:48:12;;;;;;;43.92;28.52;;;15.50;75.50;;;;;;5053744;28;20036;-66
2022/03/19 10:50:41;;;;;;;143.65;34.25;;;15.80;74.90;;;;;;5052157;28;20053;-65
2022/03/19 10:53:07;;;;;;;41.42;27.95;;;16.60;73.40;;;;;;5053310;28;20025;-64
2022/03/19 10:55:33;;;;;;;40.42;27.05;;;16.50;74.40;;;;;;5052789;28;20112;-64
2022/03/19 10:57:59;;;;;;;45.38;29.02;;;17.00;72.70;;;;;;5055162;28;20115;-65
2022/03/19 11:00:25;;;;;;;39.45;28.27;;;17.50;70.40;;;;;;5054051;28;20114;-64
2022/03/19 11:02:56;;;;;;;39.97;27.38;;;17.30;68.20;;;;;;5053552;28;20053;-64
2022/03/19 11:05:21;;;;;;;43.65;28.08;;;17.00;67.70;;;;;;5058548;28;20021;-64
2022/03/19 11:07:47;;;;;;;38.00;26.92;;;16.10;68.80;;;;;;5059061;28;20036;-66
2022/03/19 11:10:14;;;;;;;45.42;29.13;;;15.50;70.50;;;;;;5057053;28;20025;-65
2022/03/19 11:12:43;;;;;;;42.97;27.52;;;15.20;71.80;;;;;;5059410;28;20049;-64
2022/03/19 11:15:10;;;;;;;39.08;26.42;;;14.90;72.10;;;;;;5058492;28;20029;-68
2022/03/19 11:17:44;;;;;;;41.97;25.80;;;14.20;75.00;;;;;;5056201;28;20086;-68
2022/03/19 11:20:13;;;;;;;38.50;25.08;;;13.40;73.80;;;;;;5057228;28;20048;-68
2022/03/19 11:22:42;;;;;;;41.95;24.08;;;13.20;74.30;;;;;;5059539;28;20025;-66
2022/03/19 11:25:26;;;;;;;36.92;23.50;;;13.00;74.50;;;;;;5060993;28;20092;-67
2022/03/19 11:27:55;;;;;;;36.65;22.75;;;13.00;74.30;;;;;;5058703;28;20021;-67
2022/03/19 11:30:26;;;;;;;38.53;23.27;;;12.90;74.80;;;;;;5059455;28;20017;-66
2022/03/19 11:33:14;;;;;;;35.50;22.17;;;12.90;73.70;;;;;;5060968;28;20049;-66
2022/03/19 11:35:42;;;;;;;36.70;20.58;;;12.90;75.20;;;;;;5059591;28;20111;-66
2022/03/19 11:38:29;;;;;;;30.17;17.38;;;12.70;74.60;;;;;;5059956;28;20074;-65
2022/03/19 11:40:56;;;;;;;25.50;16.13;;;12.50;73.60;;;;;;5058217;28;20401;-66
2022/03/19 11:43:25;;;;;;;28.65;15.93;;;12.50;74.10;;;;;;5058386;28;20043;-65
2022/03/19 11:45:53;;;;;;;23.13;14.63;;;12.60;74.70;;;;;;5058572;28;20049;-66
2022/03/19 11:48:51;;;;;;;27.02;15.30;;;12.60;73.60;;;;;;5057416;28;20032;-66
2022/03/19 11:51:35;;;;;;;20.98;13.35;;;12.60;73.20;;;;;;5047416;28;20056;-66
2022/03/19 11:54:03;;;;;;;24.55;12.13;;;12.40;72.90;;;;;;5057818;28;20020;-66
2022/03/19 11:56:35;;;;;;;19.55;12.00;;;12.50;73.60;;;;;;5059431;28;20025;-65
2022/03/19 11:59:04;;;;;;;20.55;12.55;;;12.50;73.50;;;;;;5058142;28;20036;-66
2022/03/19 12:01:49;;;;;;;19.95;12.48;;;12.70;73.60;;;;;;5059417;28;20031;-66
2022/03/19 12:04:18;;;;;;;19.45;12.13;;;12.80;73.20;;;;;;5057722;28;20021;-67
2022/03/19 12:06:49;;;;;;;21.02;11.05;;;12.60;73.30;;;;;;5057076;28;20020;-66
2022/03/19 12:09:15;;;;;;;17.20;10.77;;;12.60;72.20;;;;;;5057181;28;20025;-63
2022/03/19 12:12:01;;;;;;;20.42;11.57;;;12.80;71.30;;;;;;5057145;28;20086;-64
2022/03/19 12:14:27;;;;;;;15.48;9.15;;;12.50;71.60;;;;;;5056012;28;20040;-65
2022/03/19 12:16:52;;;;;;;17.50;9.02;;;12.40;70.30;;;;;;5058546;28;20025;-65
2022/03/19 12:19:53;;;;;;;16.90;9.17;;;12.30;71.00;;;;;;5056170;28;20092;-61
2022/03/19 12:22:30;;;;;;;17.40;9.27;;;12.20;72.40;;;;;;5055952;28;20056;-63
2022/03/19 12:25:00;;;;;;;;;;;12.30;72.90;;;;;;5057635;28;20035;-64
2022/03/19 12:27:26;;;;;;;22.30;8.38;;;12.30;73.10;;;;;;5057479;28;19909;-63
2022/03/19 12:29:52;;;;;;;14.67;8.63;;;12.50;72.30;;;;;;5056448;28;20021;-63
2022/03/19 12:32:17;;;;;;;16.02;8.18;;;12.50;71.10;;;;;;5055568;28;20251;-63
2022/03/19 12:34:44;;;;;;;14.43;7.07;;;12.50;70.40;;;;;;5055470;28;20441;-63
2022/03/19 12:37:09;;;;;;;;;;;12.40;66.90;;;;;;5056077;28;20120;-64
2022/03/19 12:39:35;;;;;;;12.38;6.65;;;12.50;67.10;;;;;;5055491;28;19954;-62
2022/03/19 12:42:01;;;;;;;12.67;6.90;;;12.50;65.20;;;;;;5055446;28;20490;-65
2022/03/19 12:44:29;;;;;;;11.43;6.35;;;12.50;65.30;;;;;;5055648;28;20021;-62
2022/03/19 12:47:00;;;;;;;14.05;7.05;;;12.40;67.60;;;;;;5055569;28;20063;-63
2022/03/19 12:49:28;;;;;;;14.35;6.88;;;12.50;68.40;;;;;;5055767;28;20021;-65
2022/03/19 12:51:54;;;;;;;11.95;6.75;;;12.70;68.70;;;;;;5055280;28;20025;-61